createdAt,value
2019-04-28T00:02:04.834Z,99.90
2019-04-28T00:04:34.604Z,99.90
2019-04-28T00:07:04.535Z,99.90
2019-04-28T00:09:34.643Z,99.90
2019-04-28T00:12:05.207Z,99.90
2019-04-28T00:14:35.462Z,99.90
2019-04-28T00:17:05.999Z,99.90
2019-04-28T00:19:35.919Z,99.90
2019-04-28T00:22:14.250Z,99.90
2019-04-28T00:25:01.470Z,99.90
2019-04-28T00:27:31.786Z,99.90
2019-04-28T00:30:02.216Z,99.90
2019-04-28T00:32:32.635Z,99.90
2019-04-28T00:35:02.657Z,99.90
2019-04-28T00:37:34.465Z,99.90
2019-04-28T00:40:05.276Z,99.90
2019-04-28T00:42:35.517Z,99.90
2019-04-28T00:45:06.823Z,99.90
2019-04-28T00:47:36.620Z,99.90
2019-04-28T00:50:07.662Z,99.90
2019-04-28T00:52:37.426Z,99.90
2019-04-28T00:55:07.744Z,99.90
2019-04-28T00:57:37.566Z,99.90
2019-04-28T01:00:08.766Z,99.90
2019-04-28T01:02:45.399Z,99.90
2019-04-28T01:05:15.730Z,99.90
2019-04-28T01:07:46.197Z,99.90
2019-04-28T01:10:16.848Z,99.90
2019-04-28T01:12:47.136Z,99.90
2019-04-28T01:15:35.288Z,99.90
2019-04-28T01:18:11.437Z,99.90
2019-04-28T01:20:41.424Z,99.90
2019-04-28T01:23:11.804Z,99.90
2019-04-28T01:25:41.719Z,99.90
2019-04-28T01:28:12.071Z,99.90
2019-04-28T01:30:54.756Z,99.90
2019-04-28T01:33:54.131Z,99.90
2019-04-28T01:36:24.006Z,99.90
2019-04-28T01:38:53.934Z,99.90
2019-04-28T01:41:23.788Z,99.90
2019-04-28T01:43:53.746Z,99.90
2019-04-28T01:46:23.586Z,99.90
2019-04-28T01:48:53.418Z,99.90
2019-04-28T01:51:23.198Z,99.90
2019-04-28T01:53:53.358Z,99.90
2019-04-28T01:56:23.174Z,99.90
2019-04-28T01:58:53.287Z,99.90
2019-04-28T02:01:23.123Z,99.90
2019-04-28T02:03:52.940Z,99.90
2019-04-28T02:06:22.767Z,99.90
2019-04-28T02:08:52.554Z,99.90
2019-04-28T02:11:22.397Z,99.90
2019-04-28T02:13:52.147Z,99.90
2019-04-28T02:16:22.387Z,99.90
2019-04-28T02:18:52.611Z,99.90
2019-04-28T02:21:39.824Z,99.90
2019-04-28T02:24:27.039Z,99.90
2019-04-28T02:26:57.615Z,99.90
2019-04-28T02:29:27.414Z,99.90
2019-04-28T02:31:57.694Z,99.90
2019-04-28T02:34:31.078Z,99.90
2019-04-28T02:37:01.502Z,99.90
2019-04-28T02:39:31.811Z,99.90
2019-04-28T02:42:01.930Z,99.90
2019-04-28T02:44:34.900Z,99.90
2019-04-28T02:47:04.139Z,99.90
2019-04-28T02:49:44.000Z,99.90
2019-04-28T02:52:21.355Z,99.90
2019-04-28T02:54:51.222Z,99.90
2019-04-28T02:57:21.495Z,99.90
2019-04-28T02:59:51.327Z,99.90
2019-04-28T03:02:21.744Z,99.90
2019-04-28T03:04:51.548Z,99.90
2019-04-28T03:07:22.035Z,99.90
2019-04-28T03:09:52.343Z,99.90
2019-04-28T03:12:23.156Z,99.90
2019-04-28T03:14:52.961Z,99.90
2019-04-28T03:17:22.737Z,99.90
2019-04-28T03:19:52.655Z,99.90
2019-04-28T03:22:22.785Z,99.90
2019-04-28T03:24:54.512Z,99.90
2019-04-28T03:27:31.617Z,99.90
2019-04-28T03:30:12.749Z,99.90
2019-04-28T03:32:53.741Z,99.90
2019-04-28T03:35:16.921Z,99.90
2019-04-28T03:37:46.769Z,99.90
2019-04-28T03:40:16.527Z,99.90
2019-04-28T03:42:47.027Z,99.90
2019-04-28T03:45:22.826Z,99.90
2019-04-28T03:47:52.712Z,99.90
2019-04-28T03:50:22.835Z,99.90
2019-04-28T03:52:56.053Z,99.90
2019-04-28T03:55:25.924Z,99.90
2019-04-28T03:57:56.544Z,99.90
2019-04-28T04:00:27.443Z,99.90
2019-04-28T04:02:57.227Z,99.90
2019-04-28T04:05:27.512Z,99.90
2019-04-28T04:07:57.440Z,99.90
2019-04-28T04:10:43.962Z,99.90
2019-04-28T04:13:25.614Z,99.90
2019-04-28T04:16:32.600Z,99.90
2019-04-28T04:19:03.285Z,99.90
2019-04-28T04:21:33.099Z,99.90
2019-04-28T04:24:03.665Z,99.90
2019-04-28T04:26:33.967Z,99.90
2019-04-28T04:29:03.774Z,99.90
2019-04-28T04:31:33.963Z,99.90
2019-04-28T04:34:03.764Z,99.90
2019-04-28T04:36:33.673Z,99.90
2019-04-28T04:39:05.349Z,99.90
2019-04-28T04:41:35.322Z,99.90
2019-04-28T04:44:05.174Z,99.90
2019-04-28T04:46:35.028Z,99.90
2019-04-28T04:49:05.778Z,99.90
2019-04-28T04:51:35.696Z,99.90
2019-04-28T04:54:05.923Z,99.90
2019-04-28T04:56:35.779Z,99.90
2019-04-28T04:59:06.157Z,99.90
2019-04-28T05:01:55.148Z,99.90
2019-04-28T05:04:43.776Z,99.90
2019-04-28T05:07:13.612Z,99.90
2019-04-28T05:09:43.397Z,99.90
2019-04-28T05:12:13.226Z,99.90
2019-04-28T05:14:43.046Z,99.90
2019-04-28T05:17:13.203Z,99.90
2019-04-28T05:19:43.031Z,99.90
2019-04-28T05:22:13.467Z,99.90
2019-04-28T05:25:00.073Z,99.90
2019-04-28T05:27:32.568Z,99.90
2019-04-28T05:30:05.164Z,99.90
2019-04-28T05:32:42.464Z,99.90
2019-04-28T05:35:05.512Z,99.90
2019-04-28T05:37:35.608Z,99.90
2019-04-28T05:40:06.090Z,99.90
2019-04-28T05:42:36.320Z,99.90
2019-04-28T05:45:06.713Z,99.90
2019-04-28T05:47:36.852Z,99.90
2019-04-28T05:50:31.715Z,99.90
2019-04-28T05:53:30.111Z,99.90
2019-04-28T05:56:36.942Z,99.90
2019-04-28T05:59:37.496Z,99.90
2019-04-28T06:02:12.337Z,99.90
2019-04-28T06:04:42.214Z,99.90
2019-04-28T06:07:20.242Z,99.90
2019-04-28T06:09:51.829Z,99.90
2019-04-28T06:12:21.844Z,99.90
2019-04-28T06:14:51.594Z,99.90
2019-04-28T06:17:22.070Z,99.90
2019-04-28T06:19:52.946Z,99.90
2019-04-28T06:22:22.791Z,99.90
2019-04-28T06:24:53.013Z,99.90
2019-04-28T06:27:23.821Z,99.90
2019-04-28T06:29:54.346Z,99.90
2019-04-28T06:32:24.427Z,99.90
2019-04-28T06:34:54.597Z,99.90
2019-04-28T06:37:24.406Z,99.90
2019-04-28T06:39:54.570Z,99.90
2019-04-28T06:42:24.768Z,99.90
2019-04-28T06:44:55.188Z,99.90
2019-04-28T06:47:25.446Z,99.90
2019-04-28T06:49:55.262Z,99.90
2019-04-28T06:52:25.610Z,99.90
2019-04-28T06:54:55.415Z,99.90
2019-04-28T06:57:26.295Z,99.90
2019-04-28T06:59:56.064Z,99.90
2019-04-28T07:02:26.081Z,99.90
2019-04-28T07:05:02.214Z,99.90
2019-04-28T07:07:29.063Z,99.90
2019-04-28T07:09:59.215Z,99.90
2019-04-28T07:12:29.031Z,99.90
2019-04-28T07:14:58.807Z,99.90
2019-04-28T07:17:29.067Z,99.90
2019-04-28T07:20:20.598Z,99.90
2019-04-28T07:22:50.782Z,99.90
2019-04-28T07:25:21.282Z,99.90
2019-04-28T07:27:52.430Z,99.90
2019-04-28T07:30:22.759Z,99.90
2019-04-28T07:32:52.636Z,99.90
2019-04-28T07:35:22.918Z,99.90
2019-04-28T07:37:52.743Z,99.90
2019-04-28T07:40:24.111Z,99.90
2019-04-28T07:42:54.380Z,99.90
2019-04-28T07:45:24.575Z,99.90
2019-04-28T07:47:54.504Z,99.90
2019-04-28T07:50:25.098Z,99.90
2019-04-28T07:53:00.651Z,99.90
2019-04-28T07:55:30.914Z,99.90
2019-04-28T07:58:01.018Z,99.90
2019-04-28T08:00:32.024Z,99.90
2019-04-28T08:03:02.246Z,99.90
2019-04-28T08:05:32.489Z,99.90
2019-04-28T08:08:02.888Z,99.90
2019-04-28T08:10:33.458Z,99.90
2019-04-28T08:13:03.601Z,99.90
2019-04-28T08:15:33.466Z,99.90
2019-04-28T08:18:03.468Z,99.90
2019-04-28T08:20:34.036Z,99.90
2019-04-28T08:23:04.159Z,99.90
2019-04-28T08:25:34.759Z,99.90
2019-04-28T08:28:05.010Z,99.90
2019-04-28T08:30:35.550Z,99.90
2019-04-28T08:33:33.873Z,99.90
2019-04-28T08:36:03.671Z,99.90
2019-04-28T08:38:33.425Z,99.90
2019-04-28T08:41:03.218Z,99.90
2019-04-28T08:43:33.512Z,99.90
2019-04-28T08:46:03.790Z,99.90
2019-04-28T08:48:33.835Z,99.90
2019-04-28T08:51:04.180Z,99.90
2019-04-28T08:53:34.104Z,99.90
2019-04-28T08:56:03.959Z,99.90
2019-04-28T08:58:34.641Z,99.90
2019-04-28T09:01:04.615Z,99.90
2019-04-28T09:03:34.955Z,99.90
2019-04-28T09:06:04.955Z,99.90
2019-04-28T09:08:35.646Z,99.90
2019-04-28T09:11:06.070Z,99.90
2019-04-28T09:13:36.286Z,99.90
2019-04-28T09:16:06.597Z,99.90
2019-04-28T09:18:36.438Z,95.10
2019-04-28T09:21:06.694Z,96.10
2019-04-28T09:23:36.754Z,97.90
2019-04-28T09:26:06.752Z,98.00
2019-04-28T09:28:37.762Z,98.10
2019-04-28T09:31:07.752Z,96.80
2019-04-28T09:33:38.262Z,94.00
2019-04-28T09:36:09.218Z,91.80
2019-04-28T09:38:40.058Z,92.30
2019-04-28T09:41:10.749Z,91.40
2019-04-28T09:44:11.341Z,91.70
2019-04-28T09:46:42.154Z,92.10
2019-04-28T09:49:12.087Z,92.60
2019-04-28T09:51:42.143Z,92.60
2019-04-28T09:54:12.774Z,93.50
2019-04-28T09:56:55.771Z,94.30
2019-04-28T09:59:14.090Z,93.50
2019-04-28T10:01:44.031Z,93.80
2019-04-28T10:04:13.818Z,93.90
2019-04-28T10:06:43.930Z,94.50
2019-04-28T10:09:15.285Z,95.40
2019-04-28T10:11:45.139Z,94.60
2019-04-28T10:14:15.411Z,94.60
2019-04-28T10:16:45.910Z,94.20
2019-04-28T10:19:16.081Z,95.30
2019-04-28T10:21:47.374Z,96.00
2019-04-28T10:24:17.239Z,92.50
2019-04-28T10:26:48.455Z,92.60
2019-04-28T10:29:18.626Z,90.00
2019-04-28T10:31:49.190Z,91.90
2019-04-28T10:34:19.421Z,91.00
2019-04-28T10:36:49.614Z,90.40
2019-04-28T10:39:26.305Z,90.20
2019-04-28T10:41:56.520Z,90.80
2019-04-28T10:44:28.002Z,90.70
2019-04-28T10:46:58.521Z,90.60
2019-04-28T10:49:29.728Z,92.10
2019-04-28T10:51:59.884Z,89.50
2019-04-28T10:54:30.754Z,91.20
2019-04-28T10:57:00.679Z,91.10
2019-04-28T10:59:31.182Z,91.00
2019-04-28T11:02:01.175Z,90.80
2019-04-28T11:04:52.314Z,91.20
2019-04-28T11:07:23.290Z,90.50
2019-04-28T11:10:00.094Z,88.80
2019-04-28T11:12:30.367Z,88.80
2019-04-28T11:15:00.651Z,88.40
2019-04-28T11:17:31.923Z,88.10
2019-04-28T11:20:01.858Z,87.70
2019-04-28T11:22:31.641Z,90.40
2019-04-28T11:25:01.970Z,90.20
2019-04-28T11:27:32.367Z,90.30
2019-04-28T11:30:02.306Z,85.80
2019-04-28T11:32:32.674Z,85.80
2019-04-28T11:35:22.262Z,90.10
2019-04-28T11:37:52.223Z,90.90
2019-04-28T11:40:22.022Z,91.10
2019-04-28T11:42:52.611Z,92.10
2019-04-28T11:45:23.319Z,91.30
2019-04-28T11:47:53.279Z,92.30
2019-04-28T11:50:23.707Z,91.00
2019-04-28T11:52:53.876Z,91.30
2019-04-28T11:55:24.018Z,90.00
2019-04-28T11:57:53.882Z,90.70
2019-04-28T12:00:28.109Z,90.90
2019-04-28T12:02:58.842Z,91.10
2019-04-28T12:05:34.857Z,91.20
2019-04-28T12:08:05.241Z,91.40
2019-04-28T12:10:39.532Z,93.10
2019-04-28T12:13:37.523Z,91.60
2019-04-28T12:16:44.278Z,91.30
2019-04-28T12:19:25.271Z,92.40
2019-04-28T12:21:55.042Z,93.20
2019-04-28T12:24:25.113Z,93.30
2019-04-28T12:26:55.616Z,91.80
2019-04-28T12:29:25.398Z,92.50
2019-04-28T12:31:55.642Z,92.20
2019-04-28T12:34:25.431Z,90.50
2019-04-28T12:36:55.573Z,91.30
2019-04-28T12:39:25.359Z,89.70
2019-04-28T12:41:55.567Z,90.00
2019-04-28T12:44:25.380Z,88.90
2019-04-28T12:46:55.487Z,88.20
2019-04-28T12:49:33.414Z,88.60
2019-04-28T12:52:04.551Z,86.00
2019-04-28T12:54:36.544Z,85.00
2019-04-28T12:57:06.727Z,82.50
2019-04-28T12:59:42.598Z,80.10
2019-04-28T13:02:20.627Z,82.00
2019-04-28T13:04:54.589Z,82.00
2019-04-28T13:07:24.509Z,82.70
2019-04-28T13:09:54.325Z,81.90
2019-04-28T13:12:24.106Z,81.20
2019-04-28T13:14:55.024Z,82.20
2019-04-28T13:17:25.345Z,83.10
2019-04-28T13:19:55.266Z,84.60
2019-04-28T13:22:25.088Z,84.10
2019-04-28T13:24:55.277Z,86.40
2019-04-28T13:27:25.783Z,88.10
2019-04-28T13:29:56.107Z,86.60
2019-04-28T13:32:26.205Z,87.00
2019-04-28T13:34:56.098Z,88.30
2019-04-28T13:37:25.931Z,87.80
2019-04-28T13:40:00.346Z,86.60
2019-04-28T13:42:30.649Z,87.40
2019-04-28T13:45:06.598Z,88.10
2019-04-28T13:47:37.326Z,90.00
2019-04-28T13:50:20.498Z,90.00
2019-04-28T13:52:50.342Z,91.90
2019-04-28T13:55:35.699Z,92.50
2019-04-28T13:58:07.217Z,92.30
2019-04-28T14:00:55.126Z,94.50
2019-04-28T14:03:39.932Z,92.90
2019-04-28T14:06:13.459Z,93.30
2019-04-28T14:08:43.243Z,92.40
2019-04-28T14:11:13.225Z,90.00
2019-04-28T14:13:43.372Z,90.90
2019-04-28T14:16:13.298Z,90.70
2019-04-28T14:18:43.944Z,90.20
2019-04-28T14:21:13.784Z,88.20
2019-04-28T14:23:44.147Z,90.10
2019-04-28T14:26:13.961Z,89.00
2019-04-28T14:28:45.361Z,85.00
2019-04-28T14:31:15.714Z,86.40
2019-04-28T14:33:45.913Z,82.40
2019-04-28T14:36:15.727Z,84.30
2019-04-28T14:38:45.950Z,85.40
2019-04-28T14:41:15.922Z,84.20
2019-04-28T14:43:46.189Z,84.30
2019-04-28T14:46:16.032Z,81.10
2019-04-28T14:48:45.772Z,81.20
2019-04-28T14:51:16.863Z,81.50
2019-04-28T14:53:46.634Z,84.80
2019-04-28T14:56:17.511Z,85.70
2019-04-28T14:58:47.598Z,86.50
2019-04-28T15:01:37.286Z,85.50
2019-04-28T15:04:12.860Z,86.20
2019-04-28T15:06:55.700Z,88.10
2019-04-28T15:09:32.944Z,89.80
2019-04-28T15:12:05.170Z,91.20
2019-04-28T15:14:35.278Z,92.20
2019-04-28T15:17:05.370Z,93.10
2019-04-28T15:19:35.375Z,93.70
2019-04-28T15:22:09.627Z,94.20
2019-04-28T15:24:40.476Z,94.40
2019-04-28T15:27:12.939Z,95.00
2019-04-28T15:29:44.092Z,95.10
2019-04-28T15:32:15.494Z,94.80
2019-04-28T15:34:46.043Z,95.00
2019-04-28T15:37:17.936Z,94.60
2019-04-28T15:39:49.171Z,94.40
2019-04-28T15:42:21.964Z,93.70
2019-04-28T15:44:53.326Z,93.50
2019-04-28T15:47:24.476Z,93.90
2019-04-28T15:49:57.208Z,94.10
2019-04-28T15:52:27.940Z,94.10
2019-04-28T15:54:59.126Z,93.30
2019-04-28T15:57:29.870Z,93.00
2019-04-28T16:00:01.130Z,92.80
2019-04-28T16:02:32.037Z,93.80
2019-04-28T16:05:02.934Z,93.60
2019-04-28T16:07:34.656Z,93.40
2019-04-28T16:10:07.360Z,93.70
2019-04-28T16:12:38.191Z,94.40
2019-04-28T16:15:09.627Z,94.70
2019-04-28T16:17:41.467Z,95.30
2019-04-28T16:20:12.662Z,95.20
2019-04-28T16:22:43.816Z,95.50
2019-04-28T16:25:17.150Z,95.30
2019-04-28T16:27:48.223Z,95.10
2019-04-28T16:30:21.020Z,95.60
2019-04-28T16:32:52.135Z,95.70
2019-04-28T16:35:23.758Z,95.70
2019-04-28T16:37:57.076Z,96.10
2019-04-28T16:40:35.394Z,96.10
2019-04-28T16:43:13.636Z,96.30
2019-04-28T16:45:45.452Z,97.00
2019-04-28T16:48:17.528Z,97.10
2019-04-28T16:50:48.229Z,97.50
2019-04-28T16:53:20.200Z,97.90
2019-04-28T16:56:07.992Z,98.20
2019-04-28T16:59:06.177Z,98.40
2019-04-28T17:01:49.622Z,97.70
2019-04-28T17:04:20.859Z,96.40
2019-04-28T17:06:52.252Z,96.30
2019-04-28T17:09:23.534Z,96.20
2019-04-28T17:11:53.401Z,96.40
2019-04-28T17:14:24.410Z,96.60
2019-04-28T17:16:54.699Z,96.70
2019-04-28T17:19:24.479Z,96.60
2019-04-28T17:21:55.877Z,97.00
2019-04-28T17:24:26.019Z,97.60
2019-04-28T17:26:55.992Z,97.50
2019-04-28T17:29:27.184Z,97.40
2019-04-28T17:31:57.881Z,97.70
2019-04-28T17:34:28.005Z,96.50
2019-04-28T17:36:58.743Z,97.30
2019-04-28T17:39:29.650Z,96.90
2019-04-28T17:41:59.602Z,96.40
2019-04-28T17:44:30.535Z,96.20
2019-04-28T17:47:01.523Z,96.60
2019-04-28T17:49:37.252Z,97.00
2019-04-28T17:52:09.408Z,99.10
2019-04-28T17:54:40.379Z,99.90
2019-04-28T17:57:10.366Z,99.90
2019-04-28T17:59:42.301Z,99.90
2019-04-28T18:02:32.635Z,99.90
2019-04-28T18:05:11.445Z,99.90
2019-04-28T18:07:42.743Z,99.90
2019-04-28T18:10:14.585Z,99.90
2019-04-28T18:12:45.727Z,99.90
2019-04-28T18:15:30.576Z,99.90
2019-04-28T18:18:28.958Z,99.90
2019-04-28T18:20:59.673Z,99.90
2019-04-28T18:23:30.754Z,99.90
2019-04-28T18:26:02.513Z,99.90
2019-04-28T18:28:33.718Z,99.90
2019-04-28T18:31:28.492Z,99.90
2019-04-28T18:34:23.689Z,99.90
2019-04-28T18:37:04.701Z,99.90
2019-04-28T18:39:52.592Z,99.90
2019-04-28T18:42:29.455Z,99.90
2019-04-28T18:45:00.976Z,99.90
2019-04-28T18:47:31.872Z,99.90
2019-04-28T18:50:03.473Z,99.90
2019-04-28T18:52:35.119Z,99.90
2019-04-28T18:55:07.583Z,99.90
2019-04-28T18:57:39.101Z,99.90
2019-04-28T19:00:10.360Z,99.90
2019-04-28T19:02:45.223Z,99.90
2019-04-28T19:05:19.828Z,99.90
2019-04-28T19:08:15.715Z,99.90
2019-04-28T19:11:09.135Z,99.90
2019-04-28T19:13:43.467Z,99.90
2019-04-28T19:16:43.068Z,99.90
2019-04-28T19:19:17.239Z,99.90
2019-04-28T19:21:56.579Z,99.90
2019-04-28T19:24:28.752Z,99.90
2019-04-28T19:27:00.700Z,99.90
2019-04-28T19:29:33.543Z,99.90
2019-04-28T19:32:05.191Z,99.90
2019-04-28T19:34:35.739Z,99.90
2019-04-28T19:37:06.954Z,99.90
2019-04-28T19:39:40.784Z,99.90
2019-04-28T19:42:12.346Z,99.90
2019-04-28T19:44:44.691Z,99.90
2019-04-28T19:47:16.522Z,99.90
2019-04-28T19:49:47.338Z,99.90
2019-04-28T19:52:17.965Z,99.90
2019-04-28T19:55:07.359Z,99.90
2019-04-28T19:57:45.879Z,99.90
2019-04-28T20:00:23.606Z,99.90
2019-04-28T20:02:53.892Z,99.90
2019-04-28T20:05:25.649Z,99.90
2019-04-28T20:07:57.545Z,99.90
2019-04-28T20:10:27.874Z,99.90
2019-04-28T20:12:58.775Z,99.90
2019-04-28T20:15:30.134Z,99.90
2019-04-28T20:18:01.180Z,99.90
2019-04-28T20:20:33.062Z,99.90
2019-04-28T20:23:04.211Z,99.90
2019-04-28T20:25:35.141Z,99.90
2019-04-28T20:28:05.503Z,99.90
2019-04-28T20:30:35.968Z,99.90
2019-04-28T20:33:07.779Z,99.90
2019-04-28T20:35:44.032Z,99.90
2019-04-28T20:38:27.439Z,99.90
2019-04-28T20:41:03.509Z,99.90
2019-04-28T20:43:34.434Z,99.90
2019-04-28T20:46:05.406Z,99.90
2019-04-28T20:48:36.926Z,99.90
2019-04-28T20:51:08.604Z,99.90
2019-04-28T20:53:39.850Z,99.90
2019-04-28T20:56:10.906Z,99.90
2019-04-28T20:58:42.658Z,99.90
2019-04-28T21:01:13.568Z,99.90
2019-04-28T21:03:45.520Z,99.90
2019-04-28T21:06:19.094Z,99.90
2019-04-28T21:08:50.991Z,99.90
2019-04-28T21:11:21.866Z,99.90
2019-04-28T21:13:53.681Z,99.90
2019-04-28T21:16:24.618Z,99.90
2019-04-28T21:18:56.032Z,99.90
2019-04-28T21:21:28.026Z,99.90
2019-04-28T21:23:58.666Z,99.90
2019-04-28T21:26:29.210Z,99.90
2019-04-28T21:29:00.222Z,99.90
2019-04-28T21:31:32.849Z,99.90
2019-04-28T21:34:03.625Z,99.90
2019-04-28T21:36:34.423Z,99.90
2019-04-28T21:39:07.387Z,99.90
2019-04-28T21:41:38.593Z,99.90
2019-04-28T21:44:18.470Z,99.90
2019-04-28T21:46:53.700Z,99.90
2019-04-28T21:49:28.759Z,99.90
2019-04-28T21:52:01.149Z,99.90
2019-04-28T21:54:32.385Z,99.90
2019-04-28T21:57:06.628Z,99.90
2019-04-28T21:59:36.446Z,99.90
2019-04-28T22:02:06.702Z,99.90
2019-04-28T22:04:36.974Z,99.90
2019-04-28T22:07:06.958Z,99.90
2019-04-28T22:09:37.187Z,99.90
2019-04-28T22:12:07.095Z,99.90
2019-04-28T22:14:37.515Z,99.90
2019-04-28T22:17:07.376Z,99.90
2019-04-28T22:19:37.224Z,99.90
2019-04-28T22:22:07.524Z,99.90
2019-04-28T22:24:45.286Z,99.90
2019-04-28T22:27:20.882Z,99.90
2019-04-28T22:29:50.678Z,99.90
2019-04-28T22:32:20.960Z,99.90
2019-04-28T22:34:50.776Z,99.90
2019-04-28T22:37:20.920Z,99.90
2019-04-28T22:39:51.099Z,99.90
2019-04-28T22:42:20.950Z,99.90
2019-04-28T22:44:50.729Z,99.90
2019-04-28T22:47:20.539Z,99.90
2019-04-28T22:49:50.379Z,99.90
2019-04-28T22:52:20.698Z,99.90
2019-04-28T22:55:09.366Z,99.90
2019-04-28T22:58:07.307Z,99.90
2019-04-28T23:00:56.062Z,99.90
2019-04-28T23:03:41.254Z,99.90
2019-04-28T23:06:11.142Z,99.90
2019-04-28T23:08:41.314Z,99.90
2019-04-28T23:11:11.325Z,99.90
2019-04-28T23:13:41.103Z,99.90
2019-04-28T23:16:11.350Z,99.90
2019-04-28T23:18:41.240Z,99.90
2019-04-28T23:21:33.499Z,99.90
2019-04-28T23:24:03.290Z,99.90
2019-04-28T23:26:33.130Z,99.90
2019-04-28T23:29:02.997Z,99.90
2019-04-28T23:31:33.191Z,99.90
2019-04-28T23:34:03.579Z,99.90
2019-04-28T23:36:33.699Z,99.90
2019-04-28T23:39:06.940Z,99.90
2019-04-28T23:41:42.187Z,99.90
2019-04-28T23:44:12.270Z,99.90
2019-04-28T23:46:58.999Z,99.90
2019-04-28T23:49:29.985Z,99.90
2019-04-28T23:52:17.338Z,99.90
2019-04-28T23:54:49.356Z,99.90
2019-04-28T23:57:19.308Z,99.90
2019-04-28T23:59:49.090Z,99.90
